sensor_id;sensor_type;location;lat;lon;timestamp;pressure;altitude;pressure_sealevel;temperature;humidity
57594;BME280;43423;46.510;6.686;2022-09-24T00:00:30;96252.84;;;16.77;74.20
57594;BME280;43423;46.510;6.686;2022-09-24T00:03:19;96256.66;;;16.74;75.03
57594;BME280;43423;46.510;6.686;2022-09-24T00:05:46;96243.84;;;16.71;74.66
57594;BME280;43423;46.510;6.686;2022-09-24T00:08:13;96241.34;;;16.67;74.71
57594;BME280;43423;46.510;6.686;2022-09-24T00:10:41;96242.38;;;16.64;74.69
57594;BME280;43423;46.510;6.686;2022-09-24T00:13:09;96247.50;;;16.60;74.68
57594;BME280;43423;46.510;6.686;2022-09-24T00:15:42;96236.66;;;16.57;74.35
57594;BME280;43423;46.510;6.686;2022-09-24T00:18:08;96247.03;;;16.56;73.96
57594;BME280;43423;46.510;6.686;2022-09-24T00:20:34;96250.00;;;16.58;73.25
57594;BME280;43423;46.510;6.686;2022-09-24T00:23:00;96249.25;;;16.58;73.57
57594;BME280;43423;46.510;6.686;2022-09-24T00:25:26;96237.94;;;16.56;73.60
57594;BME280;43423;46.510;6.686;2022-09-24T00:28:11;96254.06;;;16.57;73.46
57594;BME280;43423;46.510;6.686;2022-09-24T00:30:38;96256.09;;;16.57;74.25
57594;BME280;43423;46.510;6.686;2022-09-24T00:33:04;96255.13;;;16.54;73.67
57594;BME280;43423;46.510;6.686;2022-09-24T00:35:31;96267.50;;;16.53;75.55
57594;BME280;43423;46.510;6.686;2022-09-24T00:37:56;96265.00;;;16.50;77.31
57594;BME280;43423;46.510;6.686;2022-09-24T00:40:34;96267.28;;;16.51;78.28
57594;BME280;43423;46.510;6.686;2022-09-24T00:43:00;96263.19;;;16.33;80.26
57594;BME280;43423;46.510;6.686;2022-09-24T00:45:28;96268.34;;;16.24;80.99
57594;BME280;43423;46.510;6.686;2022-09-24T00:47:54;96263.84;;;16.21;80.75
57594;BME280;43423;46.510;6.686;2022-09-24T00:50:32;96253.53;;;16.15;81.03
57594;BME280;43423;46.510;6.686;2022-09-24T00:53:04;96254.06;;;16.14;80.19
57594;BME280;43423;46.510;6.686;2022-09-24T00:55:34;96252.09;;;16.09;80.88
57594;BME280;43423;46.510;6.686;2022-09-24T00:58:03;96265.00;;;16.06;81.07
57594;BME280;43423;46.510;6.686;2022-09-24T01:00:30;96261.22;;;16.28;80.39
57594;BME280;43423;46.510;6.686;2022-09-24T01:03:18;96256.31;;;16.15;80.61
57594;BME280;43423;46.510;6.686;2022-09-24T01:05:45;96257.25;;;15.99;80.98
57594;BME280;43423;46.510;6.686;2022-09-24T01:08:16;96251.88;;;16.07;80.96
57594;BME280;43423;46.510;6.686;2022-09-24T01:13:34;96241.34;;;16.00;80.37
57594;BME280;43423;46.510;6.686;2022-09-24T01:16:11;96232.34;;;15.94;80.56
57594;BME280;43423;46.510;6.686;2022-09-24T01:18:44;96243.06;;;15.78;82.11
57594;BME280;43423;46.510;6.686;2022-09-24T01:21:15;96234.31;;;15.74;81.76
57594;BME280;43423;46.510;6.686;2022-09-24T01:26:53;96228.75;;;15.74;80.39
57594;BME280;43423;46.510;6.686;2022-09-24T01:32:21;96229.56;;;15.69;81.44
57594;BME280;43423;46.510;6.686;2022-09-24T01:35:03;96233.28;;;15.72;81.55
57594;BME280;43423;46.510;6.686;2022-09-24T01:37:33;96219.22;;;15.70;81.88
57594;BME280;43423;46.510;6.686;2022-09-24T01:40:01;96222.28;;;15.66;82.69
57594;BME280;43423;46.510;6.686;2022-09-24T01:42:28;96223.81;;;15.61;82.69
57594;BME280;43423;46.510;6.686;2022-09-24T01:44:56;96232.63;;;15.60;83.20
57594;BME280;43423;46.510;6.686;2022-09-24T01:47:30;96226.84;;;15.58;83.73
57594;BME280;43423;46.510;6.686;2022-09-24T01:49:56;96211.25;;;15.55;83.13
57594;BME280;43423;46.510;6.686;2022-09-24T01:52:28;96213.00;;;15.58;83.54
57594;BME280;43423;46.510;6.686;2022-09-24T01:54:56;96211.72;;;15.59;84.35
57594;BME280;43423;46.510;6.686;2022-09-24T01:57:33;96212.75;;;15.61;83.94
57594;BME280;43423;46.510;6.686;2022-09-24T02:02:33;96210.47;;;15.60;84.26
57594;BME280;43423;46.510;6.686;2022-09-24T02:05:09;96208.22;;;15.58;84.30
57594;BME280;43423;46.510;6.686;2022-09-24T02:07:40;96221.06;;;15.56;84.82
57594;BME280;43423;46.510;6.686;2022-09-24T02:10:15;96217.09;;;15.51;85.22
57594;BME280;43423;46.510;6.686;2022-09-24T02:12:43;96208.25;;;15.53;85.02
57594;BME280;43423;46.510;6.686;2022-09-24T02:15:16;96207.50;;;15.52;nan
57594;BME280;43423;46.510;6.686;2022-09-24T02:17:46;96211.78;;;15.53;85.52
57594;BME280;43423;46.510;6.686;2022-09-24T02:20:15;96200.84;;;15.67;82.12
57594;BME280;43423;46.510;6.686;2022-09-24T02:22:44;96197.88;;;15.59;81.60
57594;BME280;43423;46.510;6.686;2022-09-24T02:25:13;96204.50;;;15.50;81.98
57594;BME280;43423;46.510;6.686;2022-09-24T02:27:41;96180.59;;;15.47;82.31
57594;BME280;43423;46.510;6.686;2022-09-24T02:30:07;96183.13;;;15.45;81.61
57594;BME280;43423;46.510;6.686;2022-09-24T02:32:34;96193.25;;;15.43;82.46
57594;BME280;43423;46.510;6.686;2022-09-24T02:35:05;96193.75;;;15.41;82.45
57594;BME280;43423;46.510;6.686;2022-09-24T02:37:49;96193.00;;;15.41;82.38
57594;BME280;43423;46.510;6.686;2022-09-24T02:40:15;96194.03;;;15.38;82.94
57594;BME280;43423;46.510;6.686;2022-09-24T02:42:41;96180.41;;;15.40;81.22
57594;BME280;43423;46.510;6.686;2022-09-24T02:45:09;96181.00;;;15.32;81.48
57594;BME280;43423;46.510;6.686;2022-09-24T02:47:35;96188.59;;;15.26;82.30
57594;BME280;43423;46.510;6.686;2022-09-24T02:50:01;96182.81;;;15.24;82.86
57594;BME280;43423;46.510;6.686;2022-09-24T02:52:26;96183.00;;;15.32;82.72
57594;BME280;43423;46.510;6.686;2022-09-24T02:54:52;96182.00;;;15.29;82.75
57594;BME280;43423;46.510;6.686;2022-09-24T02:57:18;96192.63;;;15.25;83.39
57594;BME280;43423;46.510;6.686;2022-09-24T02:59:44;96190.94;;;15.17;83.32
57594;BME280;43423;46.510;6.686;2022-09-24T03:02:10;96191.16;;;15.19;82.08
57594;BME280;43423;46.510;6.686;2022-09-24T03:04:35;96192.72;;;15.14;82.90
57594;BME280;43423;46.510;6.686;2022-09-24T03:07:01;96195.25;;;15.12;82.80
57594;BME280;43423;46.510;6.686;2022-09-24T03:09:27;96187.97;;;15.09;82.71
57594;BME280;43423;46.510;6.686;2022-09-24T03:11:53;96174.03;;;15.20;81.81
57594;BME280;43423;46.510;6.686;2022-09-24T03:14:18;96183.69;;;15.08;83.15
57594;BME280;43423;46.510;6.686;2022-09-24T03:16:44;96182.72;;;15.05;83.55
57594;BME280;43423;46.510;6.686;2022-09-24T03:19:09;96182.75;;;15.00;83.67
57594;BME280;43423;46.510;6.686;2022-09-24T03:21:35;96182.28;;;14.96;83.51
57594;BME280;43423;46.510;6.686;2022-09-24T03:24:01;96182.28;;;14.96;85.10
57594;BME280;43423;46.510;6.686;2022-09-24T03:26:27;96173.75;;;14.94;84.93
57594;BME280;43423;46.510;6.686;2022-09-24T03:28:54;96178.75;;;14.95;84.79
57594;BME280;43423;46.510;6.686;2022-09-24T03:31:19;96181.25;;;14.99;83.85
57594;BME280;43423;46.510;6.686;2022-09-24T03:33:48;96182.75;;;15.00;83.38
57594;BME280;43423;46.510;6.686;2022-09-24T03:38:42;96176.75;;;14.96;85.06
57594;BME280;43423;46.510;6.686;2022-09-24T03:41:09;96170.47;;;14.95;85.04
57594;BME280;43423;46.510;6.686;2022-09-24T03:43:35;96165.38;;;14.99;84.69
57594;BME280;43423;46.510;6.686;2022-09-24T03:46:02;96162.91;;;14.96;84.92
57594;BME280;43423;46.510;6.686;2022-09-24T03:48:32;96155.59;;;14.93;85.05
57594;BME280;43423;46.510;6.686;2022-09-24T03:51:06;96155.59;;;14.93;85.47
57594;BME280;43423;46.510;6.686;2022-09-24T03:53:32;96154.09;;;14.92;85.41
57594;BME280;43423;46.510;6.686;2022-09-24T03:55:58;96155.13;;;14.94;85.63
57594;BME280;43423;46.510;6.686;2022-09-24T03:58:24;96149.31;;;14.92;86.31
57594;BME280;43423;46.510;6.686;2022-09-24T04:00:51;96153.66;;;14.88;86.37
57594;BME280;43423;46.510;6.686;2022-09-24T04:03:18;96148.13;;;14.88;86.31
57594;BME280;43423;46.510;6.686;2022-09-24T04:05:43;96156.66;;;14.90;85.87
57594;BME280;43423;46.510;6.686;2022-09-24T04:08:09;96143.56;;;14.90;86.56
57594;BME280;43423;46.510;6.686;2022-09-24T04:10:34;96141.06;;;14.87;86.28
57594;BME280;43423;46.510;6.686;2022-09-24T04:13:00;96146.81;;;14.94;86.92
57594;BME280;43423;46.510;6.686;2022-09-24T04:15:27;96144.06;;;14.89;86.67
57594;BME280;43423;46.510;6.686;2022-09-24T04:17:55;96144.72;;;15.00;85.77
57594;BME280;43423;46.510;6.686;2022-09-24T04:20:23;96148.31;;;14.95;85.96
57594;BME280;43423;46.510;6.686;2022-09-24T04:22:50;96138.06;;;14.85;86.32
57594;BME280;43423;46.510;6.686;2022-09-24T04:25:16;96141.53;;;14.91;87.17
57594;BME280;43423;46.510;6.686;2022-09-24T04:27:43;96146.63;;;14.87;87.32
57594;BME280;43423;46.510;6.686;2022-09-24T04:30:12;96137.59;;;14.80;87.41
57594;BME280;43423;46.510;6.686;2022-09-24T04:32:41;96139.13;;;14.76;88.65
57594;BME280;43423;46.510;6.686;2022-09-24T04:35:07;96140.59;;;14.83;88.54
57594;BME280;43423;46.510;6.686;2022-09-24T04:37:34;96127.75;;;14.85;88.70
57594;BME280;43423;46.510;6.686;2022-09-24T04:40:01;96126.75;;;14.83;88.82
57594;BME280;43423;46.510;6.686;2022-09-24T04:42:27;96126.00;;;14.82;89.21
57594;BME280;43423;46.510;6.686;2022-09-24T04:44:52;96130.56;;;14.79;89.15
57594;BME280;43423;46.510;6.686;2022-09-24T04:47:19;96136.09;;;14.79;88.96
57594;BME280;43423;46.510;6.686;2022-09-24T04:49:44;96141.13;;;14.75;87.74
57594;BME280;43423;46.510;6.686;2022-09-24T04:52:11;96135.16;;;14.71;89.49
57594;BME280;43423;46.510;6.686;2022-09-24T04:54:41;96141.69;;;14.68;89.51
57594;BME280;43423;46.510;6.686;2022-09-24T04:57:13;96131.34;;;14.74;89.42
57594;BME280;43423;46.510;6.686;2022-09-24T04:59:39;96144.66;;;14.76;89.63
57594;BME280;43423;46.510;6.686;2022-09-24T05:02:04;96147.47;;;14.70;89.29
57594;BME280;43423;46.510;6.686;2022-09-24T05:04:34;96144.94;;;14.72;88.88
57594;BME280;43423;46.510;6.686;2022-09-24T05:07:00;96147.19;;;14.74;88.50
57594;BME280;43423;46.510;6.686;2022-09-24T05:09:25;96142.94;;;14.73;87.41
57594;BME280;43423;46.510;6.686;2022-09-24T05:11:51;96140.69;;;14.71;87.53
57594;BME280;43423;46.510;6.686;2022-09-24T05:14:16;96142.44;;;14.69;88.06
57594;BME280;43423;46.510;6.686;2022-09-24T05:16:42;96137.69;;;14.69;88.10
57594;BME280;43423;46.510;6.686;2022-09-24T05:19:07;96144.97;;;14.67;88.44
57594;BME280;43423;46.510;6.686;2022-09-24T05:21:33;96140.44;;;14.69;88.42
57594;BME280;43423;46.510;6.686;2022-09-24T05:23:58;96144.97;;;14.67;86.79
57594;BME280;43423;46.510;6.686;2022-09-24T05:26:24;96149.84;;;14.55;87.63
57594;BME280;43423;46.510;6.686;2022-09-24T05:29:08;96147.84;;;14.50;89.50
57594;BME280;43423;46.510;6.686;2022-09-24T05:31:34;96156.34;;;14.63;89.52
57594;BME280;43423;46.510;6.686;2022-09-24T05:33:59;96146.75;;;14.64;90.04
57594;BME280;43423;46.510;6.686;2022-09-24T05:36:25;96147.59;;;14.54;91.17
57594;BME280;43423;46.510;6.686;2022-09-24T05:38:54;96156.88;;;14.56;91.46
57594;BME280;43423;46.510;6.686;2022-09-24T05:41:20;96150.81;;;14.58;92.36
57594;BME280;43423;46.510;6.686;2022-09-24T05:43:46;96162.13;;;14.60;92.45
57594;BME280;43423;46.510;6.686;2022-09-24T05:46:12;96155.38;;;14.55;93.22
57594;BME280;43423;46.510;6.686;2022-09-24T05:48:37;96165.41;;;14.58;92.81
57594;BME280;43423;46.510;6.686;2022-09-24T05:51:03;96156.84;;;14.62;92.74
57594;BME280;43423;46.510;6.686;2022-09-24T05:53:30;96165.09;;;14.67;93.10
57594;BME280;43423;46.510;6.686;2022-09-24T05:55:55;96159.81;;;14.69;93.24
57594;BME280;43423;46.510;6.686;2022-09-24T05:58:22;96170.69;;;14.62;93.41
57594;BME280;43423;46.510;6.686;2022-09-24T06:00:48;96170.41;;;14.65;93.58
57594;BME280;43423;46.510;6.686;2022-09-24T06:03:16;96169.13;;;14.66;93.11
57594;BME280;43423;46.510;6.686;2022-09-24T06:05:48;96165.34;;;14.69;92.74
57594;BME280;43423;46.510;6.686;2022-09-24T06:08:16;96165.91;;;14.62;93.62
57594;BME280;43423;46.510;6.686;2022-09-24T06:10:42;96165.41;;;14.58;94.35
57594;BME280;43423;46.510;6.686;2022-09-24T06:13:10;96164.44;;;14.56;94.71
57594;BME280;43423;46.510;6.686;2022-09-24T06:15:39;96161.88;;;14.58;94.54
57594;BME280;43423;46.510;6.686;2022-09-24T06:18:07;96160.63;;;14.59;94.08
57594;BME280;43423;46.510;6.686;2022-09-24T06:20:33;96162.88;;;14.60;92.79
57594;BME280;43423;46.510;6.686;2022-09-24T06:22:59;96164.38;;;14.61;92.27
57594;BME280;43423;46.510;6.686;2022-09-24T06:25:27;96171.44;;;14.62;92.49
57594;BME280;43423;46.510;6.686;2022-09-24T06:27:57;96167.94;;;14.56;92.85
57594;BME280;43423;46.510;6.686;2022-09-24T06:30:30;96167.66;;;14.60;92.28
57594;BME280;43423;46.510;6.686;2022-09-24T06:33:03;96171.22;;;14.55;91.51
57594;BME280;43423;46.510;6.686;2022-09-24T06:35:35;96177.50;;;14.55;92.62
57594;BME280;43423;46.510;6.686;2022-09-24T06:38:02;96174.69;;;14.61;92.75
57594;BME280;43423;46.510;6.686;2022-09-24T06:40:28;96175.19;;;14.65;91.13
57594;BME280;43423;46.510;6.686;2022-09-24T06:42:54;96172.22;;;14.51;91.61
57594;BME280;43423;46.510;6.686;2022-09-24T06:45:20;96178.25;;;14.56;91.43
57594;BME280;43423;46.510;6.686;2022-09-24T06:47:57;96180.06;;;14.47;91.71
57594;BME280;43423;46.510;6.686;2022-09-24T06:50:25;96180.06;;;14.42;92.71
57594;BME280;43423;46.510;6.686;2022-09-24T06:52:51;96180.06;;;14.47;92.79
57594;BME280;43423;46.510;6.686;2022-09-24T06:55:17;96199.66;;;14.44;93.54
57594;BME280;43423;46.510;6.686;2022-09-24T06:57:42;96200.09;;;14.59;92.54
57594;BME280;43423;46.510;6.686;2022-09-24T07:00:09;96204.97;;;14.47;93.16
57594;BME280;43423;46.510;6.686;2022-09-24T07:02:40;96207.25;;;14.38;93.04
57594;BME280;43423;46.510;6.686;2022-09-24T07:05:07;96209.78;;;14.30;93.48
57594;BME280;43423;46.510;6.686;2022-09-24T07:07:34;96204.75;;;14.29;93.15
57594;BME280;43423;46.510;6.686;2022-09-24T07:10:02;96208.78;;;14.28;92.36
57594;BME280;43423;46.510;6.686;2022-09-24T07:12:29;96207.28;;;14.27;93.55
57594;BME280;43423;46.510;6.686;2022-09-24T07:14:55;96207.56;;;14.23;94.51
57594;BME280;43423;46.510;6.686;2022-09-24T07:17:21;96208.00;;;14.33;94.04
57594;BME280;43423;46.510;6.686;2022-09-24T07:19:47;96215.03;;;14.34;93.57
57594;BME280;43423;46.510;6.686;2022-09-24T07:22:12;96211.53;;;14.33;93.96
57594;BME280;43423;46.510;6.686;2022-09-24T07:24:38;96212.50;;;14.36;93.99
57594;BME280;43423;46.510;6.686;2022-09-24T07:27:05;96216.78;;;14.37;94.58
57594;BME280;43423;46.510;6.686;2022-09-24T07:29:31;96219.31;;;14.35;94.48
57594;BME280;43423;46.510;6.686;2022-09-24T07:31:57;96209.75;;;14.36;95.01
57594;BME280;43423;46.510;6.686;2022-09-24T07:34:23;96210.25;;;14.40;94.93
57594;BME280;43423;46.510;6.686;2022-09-24T07:36:48;96208.00;;;14.38;94.78
57594;BME280;43423;46.510;6.686;2022-09-24T07:39:14;96218.25;;;14.43;94.53
57594;BME280;43423;46.510;6.686;2022-09-24T07:41:40;96206.22;;;14.41;95.01
57594;BME280;43423;46.510;6.686;2022-09-24T07:44:07;96213.78;;;14.46;95.70
57594;BME280;43423;46.510;6.686;2022-09-24T07:46:33;96210.22;;;14.45;95.89
57594;BME280;43423;46.510;6.686;2022-09-24T07:48:58;96214.22;;;14.44;95.85
57594;BME280;43423;46.510;6.686;2022-09-24T07:51:25;96212.72;;;14.43;95.49
57594;BME280;43423;46.510;6.686;2022-09-24T07:53:56;96212.72;;;14.43;95.60
57594;BME280;43423;46.510;6.686;2022-09-24T07:56:22;96206.44;;;14.43;96.48
57594;BME280;43423;46.510;6.686;2022-09-24T07:58:49;96202.72;;;14.46;97.07
57594;BME280;43423;46.510;6.686;2022-09-24T08:01:15;96218.50;;;14.51;96.67
57594;BME280;43423;46.510;6.686;2022-09-24T08:03:42;96218.75;;;14.53;97.40
57594;BME280;43423;46.510;6.686;2022-09-24T08:06:08;96211.97;;;14.54;97.22
57594;BME280;43423;46.510;6.686;2022-09-24T08:08:34;96207.66;;;14.59;97.43
57594;BME280;43423;46.510;6.686;2022-09-24T08:11:03;96214.66;;;14.65;97.94
57594;BME280;43423;46.510;6.686;2022-09-24T08:13:29;96204.38;;;14.60;98.05
57594;BME280;43423;46.510;6.686;2022-09-24T08:15:58;96212.41;;;14.64;97.39
57594;BME280;43423;46.510;6.686;2022-09-24T08:18:24;96211.13;;;14.70;96.98
57594;BME280;43423;46.510;6.686;2022-09-24T08:20:49;96210.38;;;14.70;96.61
57594;BME280;43423;46.510;6.686;2022-09-24T08:23:15;96212.63;;;14.71;96.72
57594;BME280;43423;46.510;6.686;2022-09-24T08:25:41;96206.28;;;14.76;96.05
57594;BME280;43423;46.510;6.686;2022-09-24T08:28:07;96208.81;;;14.80;95.34
57594;BME280;43423;46.510;6.686;2022-09-24T08:30:33;96207.84;;;14.72;93.40
57594;BME280;43423;46.510;6.686;2022-09-24T08:33:00;96211.38;;;14.72;92.76
57594;BME280;43423;46.510;6.686;2022-09-24T08:35:25;96209.38;;;14.67;92.34
57594;BME280;43423;46.510;6.686;2022-09-24T08:37:55;96208.25;;;14.46;91.45
57594;BME280;43423;46.510;6.686;2022-09-24T08:40:23;96208.25;;;14.46;92.18
57594;BME280;43423;46.510;6.686;2022-09-24T08:45:44;96215.50;;;14.55;94.12
57594;BME280;43423;46.510;6.686;2022-09-24T08:48:33;96225.31;;;14.50;94.95
57594;BME280;43423;46.510;6.686;2022-09-24T08:51:04;96212.22;;;14.50;95.36
57594;BME280;43423;46.510;6.686;2022-09-24T08:56:07;96214.75;;;14.54;95.18
57594;BME280;43423;46.510;6.686;2022-09-24T08:58:44;96217.97;;;14.58;93.45
57594;BME280;43423;46.510;6.686;2022-09-24T09:01:18;96212.97;;;14.51;93.42
57594;BME280;43423;46.510;6.686;2022-09-24T09:03:53;96218.75;;;14.53;93.83
57594;BME280;43423;46.510;6.686;2022-09-24T09:06:45;96208.94;;;14.58;95.21
57594;BME280;43423;46.510;6.686;2022-09-24T09:09:19;96209.91;;;14.60;94.54
57594;BME280;43423;46.510;6.686;2022-09-24T09:11:49;96208.16;;;14.63;93.64
57594;BME280;43423;46.510;6.686;2022-09-24T09:14:20;96218.47;;;14.62;94.08
57594;BME280;43423;46.510;6.686;2022-09-24T09:17:23;96213.94;;;14.59;93.18
57594;BME280;43423;46.510;6.686;2022-09-24T09:19:52;96220.00;;;14.58;93.78
57594;BME280;43423;46.510;6.686;2022-09-24T09:22:23;96220.00;;;14.58;93.54
57594;BME280;43423;46.510;6.686;2022-09-24T09:24:51;96214.75;;;14.54;93.44
57594;BME280;43423;46.510;6.686;2022-09-24T09:27:19;96218.50;;;14.57;93.20
57594;BME280;43423;46.510;6.686;2022-09-24T09:29:55;96217.75;;;14.56;93.49
57594;BME280;43423;46.510;6.686;2022-09-24T09:38:25;96220.50;;;14.56;95.09
57594;BME280;43423;46.510;6.686;2022-09-24T09:41:02;96213.72;;;14.57;94.38
57594;BME280;43423;46.510;6.686;2022-09-24T09:43:31;96220.75;;;14.58;95.11
57594;BME280;43423;46.510;6.686;2022-09-24T09:48:43;96210.91;;;14.63;95.91
57594;BME280;43423;46.510;6.686;2022-09-24T09:51:16;96220.94;;;14.71;95.91
57594;BME280;43423;46.510;6.686;2022-09-24T09:53:57;96221.66;;;14.77;97.00
57594;BME280;43423;46.510;6.686;2022-09-24T09:56:35;96227.75;;;14.70;96.47
57594;BME280;43423;46.510;6.686;2022-09-24T09:59:07;96223.41;;;14.75;97.39
57594;BME280;43423;46.510;6.686;2022-09-24T10:01:42;96211.59;;;14.74;97.56
57594;BME280;43423;46.510;6.686;2022-09-24T10:07:10;96224.16;;;14.81;96.28
57594;BME280;43423;46.510;6.686;2022-09-24T10:09:38;96218.63;;;14.75;96.07
57594;BME280;43423;46.510;6.686;2022-09-24T10:12:15;96221.16;;;14.73;96.17
57594;BME280;43423;46.510;6.686;2022-09-24T10:14:41;96222.34;;;14.84;94.90
57594;BME280;43423;46.510;6.686;2022-09-24T10:17:12;96221.88;;;14.85;95.92
57594;BME280;43423;46.510;6.686;2022-09-24T10:19:39;96212.56;;;14.83;96.25
57594;BME280;43423;46.510;6.686;2022-09-24T10:22:10;96217.63;;;14.78;95.80
57594;BME280;43423;46.510;6.686;2022-09-24T10:24:42;96211.59;;;14.74;95.16
57594;BME280;43423;46.510;6.686;2022-09-24T10:27:12;96220.88;;;14.77;95.25
57594;BME280;43423;46.510;6.686;2022-09-24T10:29:39;96207.56;;;14.75;95.13
57594;BME280;43423;46.510;6.686;2022-09-24T10:32:25;96219.03;;;14.91;94.85
57594;BME280;43423;46.510;6.686;2022-09-24T10:35:32;96213.25;;;14.94;95.13
57594;BME280;43423;46.510;6.686;2022-09-24T10:38:01;96202.94;;;14.95;94.10
57594;BME280;43423;46.510;6.686;2022-09-24T10:40:37;96198.34;;;15.03;92.64
57594;BME280;43423;46.510;6.686;2022-09-24T10:43:04;96190.81;;;14.98;91.94
57594;BME280;43423;46.510;6.686;2022-09-24T10:48:12;96193.47;;;15.15;89.57
57594;BME280;43423;46.510;6.686;2022-09-24T10:50:51;96193.75;;;15.11;88.92
57594;BME280;43423;46.510;6.686;2022-09-24T10:53:37;96193.19;;;15.18;92.26
57594;BME280;43423;46.510;6.686;2022-09-24T10:56:37;96200.97;;;15.20;86.46
57594;BME280;43423;46.510;6.686;2022-09-24T10:59:16;96192.13;;;15.27;88.01
57594;BME280;43423;46.510;6.686;2022-09-24T11:19:10;96186.41;;;16.41;86.54
57594;BME280;43423;46.510;6.686;2022-09-24T11:22:11;96193.66;;;16.69;85.87
57594;BME280;43423;46.510;6.686;2022-09-24T11:35:46;96180.94;;;17.24;77.68
57594;BME280;43423;46.510;6.686;2022-09-24T11:38:21;96173.03;;;16.96;74.45
57594;BME280;43423;46.510;6.686;2022-09-24T11:54:32;96147.34;;;16.77;71.62
57594;BME280;43423;46.510;6.686;2022-09-24T11:57:22;96139.63;;;16.70;72.13
57594;BME280;43423;46.510;6.686;2022-09-24T12:02:29;96132.19;;;16.59;72.62
57594;BME280;43423;46.510;6.686;2022-09-24T12:05:07;96134.50;;;16.74;74.58
57594;BME280;43423;46.510;6.686;2022-09-24T12:07:43;96130.84;;;16.98;74.12
57594;BME280;43423;46.510;6.686;2022-09-24T12:15:57;96123.88;;;17.23;72.72
57594;BME280;43423;46.510;6.686;2022-09-24T12:18:28;96118.44;;;17.31;74.22
57594;BME280;43423;46.510;6.686;2022-09-24T12:20:59;96105.16;;;17.11;75.38
57594;BME280;43423;46.510;6.686;2022-09-24T12:23:29;96115.78;;;17.39;72.14
57594;BME280;43423;46.510;6.686;2022-09-24T12:25:58;96115.25;;;17.40;73.83
57594;BME280;43423;46.510;6.686;2022-09-24T12:28:29;96110.56;;;17.48;69.39
57594;BME280;43423;46.510;6.686;2022-09-24T12:31:24;96099.25;;;17.46;71.68
57594;BME280;43423;46.510;6.686;2022-09-24T12:34:50;96092.06;;;17.51;70.98
57594;BME280;43423;46.510;6.686;2022-09-24T12:37:27;96099.13;;;17.52;71.68
57594;BME280;43423;46.510;6.686;2022-09-24T12:40:02;96086.19;;;17.54;69.39
57594;BME280;43423;46.510;6.686;2022-09-24T12:42:48;96079.44;;;17.50;69.85
57594;BME280;43423;46.510;6.686;2022-09-24T12:45:17;96085.13;;;17.57;72.30
57594;BME280;43423;46.510;6.686;2022-09-24T12:47:53;96076.66;;;17.50;70.09
57594;BME280;43423;46.510;6.686;2022-09-24T12:50:25;96092.16;;;17.58;70.64
57594;BME280;43423;46.510;6.686;2022-09-24T12:52:52;96083.41;;;17.54;72.88
57594;BME280;43423;46.510;6.686;2022-09-24T12:55:25;96077.97;;;17.49;72.01
57594;BME280;43423;46.510;6.686;2022-09-24T12:57:54;96066.28;;;17.37;70.62
57594;BME280;43423;46.510;6.686;2022-09-24T13:00:40;96076.78;;;17.31;71.65
57594;BME280;43423;46.510;6.686;2022-09-24T13:05:59;96065.19;;;17.14;73.92
57594;BME280;43423;46.510;6.686;2022-09-24T13:08:27;96063.59;;;17.18;73.05
57594;BME280;43423;46.510;6.686;2022-09-24T13:11:01;96061.34;;;17.17;72.95
57594;BME280;43423;46.510;6.686;2022-09-24T13:13:30;96070.53;;;17.12;73.35
57594;BME280;43423;46.510;6.686;2022-09-24T13:16:06;96052.69;;;17.07;75.59
57594;BME280;43423;46.510;6.686;2022-09-24T13:18:33;96063.38;;;17.29;75.31
57594;BME280;43423;46.510;6.686;2022-09-24T13:21:03;96072.06;;;17.52;74.49
57594;BME280;43423;46.510;6.686;2022-09-24T13:23:52;96066.63;;;17.60;73.22
57594;BME280;43423;46.510;6.686;2022-09-24T13:28:58;96076.88;;;17.52;67.00
57594;BME280;43423;46.510;6.686;2022-09-24T13:34:26;96077.59;;;17.13;69.51
57594;BME280;43423;46.510;6.686;2022-09-24T13:37:18;96081.22;;;17.21;71.85
57594;BME280;43423;46.510;6.686;2022-09-24T13:39:55;96082.28;;;17.05;72.40
57594;BME280;43423;46.510;6.686;2022-09-24T13:42:44;96078.22;;;17.06;71.06
57594;BME280;43423;46.510;6.686;2022-09-24T13:45:16;96068.75;;;16.82;70.56
57594;BME280;43423;46.510;6.686;2022-09-24T13:47:50;96077.47;;;16.73;72.50
57594;BME280;43423;46.510;6.686;2022-09-24T13:50:26;96066.81;;;16.58;71.96
57594;BME280;43423;46.510;6.686;2022-09-24T13:53:06;96070.66;;;16.55;70.90
57594;BME280;43423;46.510;6.686;2022-09-24T13:55:43;96055.97;;;16.41;72.16
57594;BME280;43423;46.510;6.686;2022-09-24T13:58:36;96071.88;;;16.60;72.24
57594;BME280;43423;46.510;6.686;2022-09-24T14:03:54;96059.78;;;16.76;74.10
57594;BME280;43423;46.510;6.686;2022-09-24T14:08:56;96047.19;;;16.88;76.14
57594;BME280;43423;46.510;6.686;2022-09-24T14:11:23;96056.19;;;16.94;73.89
57594;BME280;43423;46.510;6.686;2022-09-24T14:13:52;96058.97;;;16.94;71.93
57594;BME280;43423;46.510;6.686;2022-09-24T14:16:24;96062.22;;;16.80;71.89
57594;BME280;43423;46.510;6.686;2022-09-24T14:19:04;96051.22;;;16.74;71.46
57594;BME280;43423;46.510;6.686;2022-09-24T14:21:37;96042.97;;;16.68;70.36
57594;BME280;43423;46.510;6.686;2022-09-24T14:24:06;96045.00;;;16.68;71.00
57594;BME280;43423;46.510;6.686;2022-09-24T14:26:36;96051.03;;;16.85;72.60
57594;BME280;43423;46.510;6.686;2022-09-24T14:29:07;96036.38;;;16.71;73.49
57594;BME280;43423;46.510;6.686;2022-09-24T14:32:15;96034.88;;;16.70;72.98
57594;BME280;43423;46.510;6.686;2022-09-24T14:37:13;96044.53;;;16.64;71.83
57594;BME280;43423;46.510;6.686;2022-09-24T14:39:43;96051.75;;;16.72;72.46
57594;BME280;43423;46.510;6.686;2022-09-24T14:42:20;96052.31;;;16.84;70.84
57594;BME280;43423;46.510;6.686;2022-09-24T14:44:47;96046.53;;;16.82;70.00
57594;BME280;43423;46.510;6.686;2022-09-24T14:47:27;96049.31;;;16.82;71.34
57594;BME280;43423;46.510;6.686;2022-09-24T14:49:53;96042.38;;;16.76;71.17
57594;BME280;43423;46.510;6.686;2022-09-24T14:55:14;96034.13;;;16.70;70.82
57594;BME280;43423;46.510;6.686;2022-09-24T14:57:42;96035.63;;;16.71;69.95
57594;BME280;43423;46.510;6.686;2022-09-24T15:02:50;96023.53;;;16.68;69.81